createdAt,value
2023-02-15T00:02:01.467Z,90.09
2023-02-15T00:04:46.986Z,91.00
2023-02-15T00:07:18.169Z,90.57
2023-02-15T00:09:47.180Z,90.40
2023-02-15T00:12:13.991Z,91.00
2023-02-15T00:14:40.468Z,90.76
2023-02-15T00:17:06.987Z,90.49
2023-02-15T00:19:33.514Z,89.92
2023-02-15T00:22:00.078Z,90.06
2023-02-15T00:24:26.995Z,90.53
2023-02-15T00:26:53.459Z,90.61
2023-02-15T00:29:20.891Z,90.55
2023-02-15T00:31:47.866Z,90.81
2023-02-15T00:34:23.452Z,90.19
2023-02-15T00:36:50.613Z,90.93
2023-02-15T00:39:18.405Z,90.91
2023-02-15T00:41:45.451Z,90.13
2023-02-15T00:44:12.682Z,91.07
2023-02-15T00:46:39.383Z,90.69
2023-02-15T00:49:09.412Z,90.48
2023-02-15T00:51:36.757Z,90.91
2023-02-15T00:54:03.491Z,90.22
2023-02-15T00:56:30.041Z,90.88
2023-02-15T00:58:56.577Z,90.82
2023-02-15T01:01:24.297Z,91.24
2023-02-15T01:03:51.718Z,90.65
2023-02-15T01:06:18.456Z,90.98
2023-02-15T01:08:46.595Z,91.05
2023-02-15T01:11:16.189Z,91.31
2023-02-15T01:13:42.719Z,91.58
2023-02-15T01:16:09.393Z,91.03
2023-02-15T01:18:36.756Z,91.40
2023-02-15T01:21:14.625Z,90.82
2023-02-15T01:23:43.966Z,91.03
2023-02-15T01:26:13.491Z,91.39
2023-02-15T01:28:39.987Z,91.22
2023-02-15T01:31:08.823Z,90.77
2023-02-15T01:33:37.058Z,91.44
2023-02-15T01:36:04.670Z,91.40
2023-02-15T01:38:33.075Z,91.38
2023-02-15T01:41:19.466Z,91.02
2023-02-15T01:44:00.883Z,91.09
2023-02-15T01:46:34.335Z,91.11
2023-02-15T01:49:09.017Z,90.90
2023-02-15T01:51:37.390Z,90.80
2023-02-15T01:54:12.589Z,91.16
2023-02-15T01:56:41.376Z,91.46
2023-02-15T01:59:15.044Z,91.63
2023-02-15T02:01:42.336Z,91.51
2023-02-15T02:04:24.191Z,90.94
2023-02-15T02:06:52.662Z,91.20
2023-02-15T02:09:19.106Z,91.24
2023-02-15T02:11:48.478Z,91.11
2023-02-15T02:14:16.352Z,91.33
2023-02-15T02:16:57.779Z,91.03
2023-02-15T02:19:43.141Z,91.38
2023-02-15T02:22:37.951Z,91.05
2023-02-15T02:25:21.305Z,91.51
2023-02-15T02:28:12.778Z,91.87
2023-02-15T02:31:00.966Z,91.14
2023-02-15T02:33:34.230Z,91.27
2023-02-15T02:36:17.661Z,91.87
2023-02-15T02:39:22.775Z,91.38
2023-02-15T02:41:59.760Z,91.26
2023-02-15T02:44:44.211Z,91.99
2023-02-15T02:47:23.718Z,92.02
2023-02-15T02:49:54.015Z,91.21
2023-02-15T02:52:43.806Z,91.24
2023-02-15T02:55:49.465Z,91.75
2023-02-15T02:58:51.485Z,91.70
2023-02-15T03:01:57.516Z,91.98
2023-02-15T03:04:35.624Z,91.52
2023-02-15T03:07:06.789Z,92.23
2023-02-15T03:09:44.363Z,91.96
2023-02-15T03:12:32.203Z,92.21
2023-02-15T03:15:15.802Z,91.77
2023-02-15T03:17:46.088Z,91.73
2023-02-15T03:20:21.647Z,91.85
2023-02-15T03:22:56.144Z,92.39
2023-02-15T03:25:27.772Z,91.96
2023-02-15T03:28:00.362Z,92.41
2023-02-15T03:30:29.298Z,91.98
2023-02-15T03:33:00.587Z,92.29
2023-02-15T03:35:44.819Z,92.03
2023-02-15T03:38:15.154Z,91.77
2023-02-15T03:41:05.344Z,92.52
2023-02-15T03:43:41.662Z,91.80
2023-02-15T03:46:24.742Z,92.11
2023-02-15T03:48:59.872Z,91.81
2023-02-15T03:51:35.472Z,92.18
2023-02-15T03:54:44.985Z,91.96
2023-02-15T03:57:43.448Z,92.26
2023-02-15T04:00:36.791Z,92.15
2023-02-15T04:03:15.643Z,92.23
2023-02-15T04:05:44.350Z,92.49
2023-02-15T04:08:11.989Z,92.09
2023-02-15T04:10:53.737Z,92.33
2023-02-15T04:13:22.235Z,92.34
2023-02-15T04:16:07.798Z,92.50
2023-02-15T04:18:57.705Z,92.19
2023-02-15T04:21:44.433Z,91.94
2023-02-15T04:24:30.249Z,92.34
2023-02-15T04:26:56.839Z,92.08
2023-02-15T04:29:24.667Z,92.38
2023-02-15T04:31:52.755Z,92.67
2023-02-15T04:34:19.609Z,92.45
2023-02-15T04:36:46.295Z,92.34
2023-02-15T04:39:16.987Z,92.27
2023-02-15T04:41:45.915Z,92.34
2023-02-15T04:44:12.549Z,92.44
2023-02-15T04:46:39.130Z,92.75
2023-02-15T04:49:06.053Z,92.76
2023-02-15T04:51:32.503Z,92.28
2023-02-15T04:53:59.019Z,92.59
2023-02-15T04:56:25.430Z,92.46
2023-02-15T04:58:52.001Z,92.49
2023-02-15T05:01:18.930Z,92.93
2023-02-15T05:03:45.587Z,92.77
2023-02-15T05:06:12.125Z,92.38
2023-02-15T05:08:38.666Z,92.40
2023-02-15T05:11:05.172Z,92.67
2023-02-15T05:13:31.663Z,92.22
2023-02-15T05:15:58.320Z,93.04
2023-02-15T05:18:24.872Z,92.57
2023-02-15T05:20:51.343Z,92.77
2023-02-15T05:23:17.897Z,92.68
2023-02-15T05:26:07.649Z,92.57
2023-02-15T05:28:35.336Z,92.73
2023-02-15T05:31:10.868Z,93.02
2023-02-15T05:33:38.089Z,92.80
2023-02-15T05:36:05.111Z,92.87
2023-02-15T05:38:32.661Z,92.75
2023-02-15T05:40:59.723Z,92.88
2023-02-15T05:43:26.958Z,92.93
2023-02-15T05:45:55.345Z,93.01
2023-02-15T05:48:23.970Z,93.12
2023-02-15T05:51:04.333Z,92.89
2023-02-15T05:53:32.908Z,92.85
2023-02-15T05:56:03.441Z,92.84
2023-02-15T05:58:36.153Z,92.82
2023-02-15T06:01:14.395Z,93.00
2023-02-15T06:03:41.452Z,92.63
2023-02-15T06:06:08.305Z,92.89
2023-02-15T06:08:36.122Z,92.93
2023-02-15T06:11:02.691Z,92.89
2023-02-15T06:13:29.197Z,92.94
2023-02-15T06:15:55.717Z,92.98
2023-02-15T06:18:22.271Z,92.51
2023-02-15T06:20:49.237Z,92.84
2023-02-15T06:23:16.116Z,92.85
2023-02-15T06:25:42.795Z,92.89
2023-02-15T06:28:09.278Z,92.94
2023-02-15T06:30:35.700Z,92.97
2023-02-15T06:33:02.334Z,92.73
2023-02-15T06:35:28.990Z,92.71
2023-02-15T06:37:55.461Z,92.96
2023-02-15T06:40:22.055Z,93.07
2023-02-15T06:42:48.623Z,93.10
2023-02-15T06:45:15.218Z,92.81
2023-02-15T06:47:41.685Z,93.04
2023-02-15T06:50:09.270Z,93.09
2023-02-15T06:52:35.704Z,93.26
2023-02-15T06:55:02.406Z,93.14
2023-02-15T06:57:28.853Z,93.15
2023-02-15T06:59:55.920Z,92.77
2023-02-15T07:02:22.490Z,93.04
2023-02-15T07:04:48.974Z,92.68
2023-02-15T07:07:15.472Z,92.91
2023-02-15T07:09:42.088Z,93.03
2023-02-15T07:12:27.461Z,92.70
2023-02-15T07:14:54.304Z,92.55
2023-02-15T07:17:35.503Z,92.64
2023-02-15T07:20:14.106Z,92.22
2023-02-15T07:22:40.559Z,92.78
2023-02-15T07:25:09.131Z,92.32
2023-02-15T07:27:36.049Z,92.58
2023-02-15T07:30:03.669Z,92.01
2023-02-15T07:32:31.882Z,92.00
2023-02-15T07:34:59.400Z,92.05
2023-02-15T07:37:27.596Z,92.20
2023-02-15T07:39:54.068Z,92.05
2023-02-15T07:42:22.024Z,92.07
2023-02-15T07:44:56.898Z,91.48
2023-02-15T07:47:23.623Z,91.77
2023-02-15T07:49:50.221Z,91.25
2023-02-15T07:52:16.764Z,91.40
2023-02-15T07:54:43.214Z,90.86
2023-02-15T07:57:09.750Z,91.29
2023-02-15T07:59:36.228Z,91.11
2023-02-15T08:02:02.870Z,91.58
2023-02-15T08:04:29.282Z,90.92
2023-02-15T08:06:56.088Z,91.21
2023-02-15T08:09:22.802Z,90.96
2023-02-15T08:11:49.906Z,91.70
2023-02-15T08:14:18.882Z,91.27
2023-02-15T08:16:46.552Z,91.45
2023-02-15T08:19:24.741Z,90.62
2023-02-15T08:21:54.390Z,90.81
2023-02-15T08:24:23.048Z,91.30
2023-02-15T08:26:50.511Z,91.09
2023-02-15T08:29:19.633Z,90.75
2023-02-15T08:31:46.751Z,91.00
2023-02-15T08:34:17.430Z,91.04
2023-02-15T08:36:46.071Z,90.98
2023-02-15T08:39:13.240Z,90.66
2023-02-15T08:41:40.432Z,90.04
2023-02-15T08:44:08.670Z,90.25
2023-02-15T08:46:37.559Z,90.23
2023-02-15T08:49:04.752Z,89.85
2023-02-15T08:51:34.503Z,89.29
2023-02-15T08:54:05.619Z,89.15
2023-02-15T08:56:38.226Z,88.46
2023-02-15T08:59:05.897Z,88.47
2023-02-15T09:01:34.667Z,88.24
2023-02-15T09:04:10.672Z,88.16
2023-02-15T09:06:39.342Z,87.82
2023-02-15T09:09:06.679Z,87.50
2023-02-15T09:11:41.561Z,86.74
2023-02-15T09:14:20.955Z,86.44
2023-02-15T09:16:50.270Z,86.85
2023-02-15T09:19:20.652Z,85.33
2023-02-15T09:21:47.413Z,81.67
2023-02-15T09:24:16.378Z,76.86
2023-02-15T09:26:45.330Z,71.90
2023-02-15T09:29:13.610Z,68.42
2023-02-15T09:31:45.419Z,64.70
2023-02-15T09:34:14.845Z,64.00
2023-02-15T09:36:41.913Z,65.08
2023-02-15T09:39:17.769Z,67.03
2023-02-15T09:42:00.995Z,69.31
2023-02-15T09:44:33.635Z,67.61
2023-02-15T09:47:02.818Z,67.50
2023-02-15T09:49:51.237Z,65.98
2023-02-15T09:52:35.807Z,64.14
2023-02-15T09:55:20.817Z,60.70
2023-02-15T09:58:08.911Z,58.87
2023-02-15T10:00:38.438Z,57.14
2023-02-15T10:03:43.243Z,58.08
2023-02-15T10:06:27.822Z,59.61
2023-02-15T10:09:14.437Z,58.17
2023-02-15T10:11:59.611Z,55.48
2023-02-15T10:14:47.159Z,51.47
2023-02-15T10:17:25.845Z,51.17
2023-02-15T10:20:23.842Z,50.60
2023-02-15T10:23:09.246Z,52.64
2023-02-15T10:26:05.434Z,54.65
2023-02-15T10:28:40.818Z,54.31
2023-02-15T10:31:29.147Z,52.82
2023-02-15T10:34:28.079Z,50.24
2023-02-15T10:37:31.074Z,48.62
2023-02-15T10:40:23.299Z,48.78
2023-02-15T10:43:15.298Z,47.36
2023-02-15T10:45:52.471Z,48.36
2023-02-15T10:48:37.094Z,48.52
2023-02-15T10:51:06.174Z,47.07
2023-02-15T10:54:08.836Z,46.04
2023-02-15T10:56:51.733Z,47.82
2023-02-15T10:59:38.417Z,47.21
2023-02-15T11:02:35.457Z,45.81
2023-02-15T11:05:25.823Z,44.80
2023-02-15T11:07:55.985Z,43.98
2023-02-15T11:10:31.945Z,42.78
2023-02-15T11:13:03.174Z,41.93
2023-02-15T11:15:42.586Z,43.15
2023-02-15T11:18:32.214Z,44.74
2023-02-15T11:21:11.080Z,45.07
2023-02-15T11:23:43.225Z,46.09
2023-02-15T11:26:34.973Z,48.01
2023-02-15T11:29:23.869Z,50.11
2023-02-15T11:31:56.076Z,53.51
2023-02-15T11:34:35.348Z,54.87
2023-02-15T11:37:14.710Z,54.50
2023-02-15T11:39:41.201Z,54.27
2023-02-15T11:42:14.237Z,53.51
2023-02-15T11:44:55.169Z,54.83
2023-02-15T11:47:21.755Z,56.13
2023-02-15T11:49:48.425Z,57.22
2023-02-15T11:52:17.167Z,58.80
2023-02-15T11:54:47.112Z,58.20
2023-02-15T11:57:13.464Z,58.69
2023-02-15T11:59:44.197Z,57.74
2023-02-15T12:02:18.442Z,57.37
2023-02-15T12:04:52.030Z,57.70
2023-02-15T12:07:26.531Z,58.44
2023-02-15T12:10:18.064Z,59.39
2023-02-15T12:12:44.944Z,59.24
2023-02-15T12:15:13.450Z,59.38
2023-02-15T12:17:48.826Z,58.57
2023-02-15T12:20:15.243Z,58.61
2023-02-15T12:22:50.671Z,59.49
2023-02-15T12:25:30.236Z,60.61
2023-02-15T12:27:56.701Z,59.63
2023-02-15T12:30:30.353Z,59.89
2023-02-15T12:33:15.329Z,59.55
2023-02-15T12:35:43.541Z,59.37
2023-02-15T12:38:09.940Z,58.90
2023-02-15T12:40:37.051Z,59.29
2023-02-15T12:43:09.592Z,59.29
2023-02-15T12:45:38.301Z,58.48
2023-02-15T12:48:17.020Z,59.40
2023-02-15T12:51:06.294Z,58.47
2023-02-15T12:53:35.455Z,58.77
2023-02-15T12:56:04.910Z,58.80
2023-02-15T12:58:42.150Z,59.23
2023-02-15T13:01:22.649Z,60.02
2023-02-15T13:04:06.207Z,60.64
2023-02-15T13:06:35.801Z,60.19
2023-02-15T13:09:19.256Z,60.71
2023-02-15T13:11:46.944Z,60.98
2023-02-15T13:14:30.102Z,61.49
2023-02-15T13:16:59.468Z,61.90
2023-02-15T13:19:36.817Z,62.12
2023-02-15T13:22:07.457Z,61.86
2023-02-15T13:24:58.312Z,61.83
2023-02-15T13:27:33.893Z,62.38
2023-02-15T13:30:04.777Z,62.47
2023-02-15T13:32:37.321Z,63.26
2023-02-15T13:35:08.034Z,63.22
2023-02-15T13:37:58.550Z,63.06
2023-02-15T13:40:40.139Z,63.68
2023-02-15T13:43:22.535Z,63.39
2023-02-15T13:46:30.567Z,63.46
2023-02-15T13:49:33.192Z,62.65
2023-02-15T13:52:13.843Z,62.44
2023-02-15T13:55:01.483Z,62.10
2023-02-15T13:57:47.080Z,62.75
2023-02-15T14:00:31.989Z,62.30
2023-02-15T14:03:26.554Z,62.47
2023-02-15T14:05:58.439Z,62.10
2023-02-15T14:08:46.561Z,62.14
2023-02-15T14:11:24.874Z,62.37
2023-02-15T14:14:18.294Z,63.18
2023-02-15T14:17:18.563Z,63.32
2023-02-15T14:19:51.974Z,62.28
2023-02-15T14:22:32.909Z,63.42
2023-02-15T14:25:19.810Z,63.31
2023-02-15T14:28:20.063Z,64.02
2023-02-15T14:30:50.761Z,62.79
2023-02-15T14:33:40.826Z,62.81
2023-02-15T14:36:09.190Z,62.95
2023-02-15T14:39:00.726Z,63.06
2023-02-15T14:41:52.704Z,62.99
2023-02-15T14:44:36.335Z,63.16
2023-02-15T14:47:13.763Z,62.80
2023-02-15T14:49:41.152Z,63.04
2023-02-15T14:52:12.446Z,63.71
2023-02-15T14:54:38.850Z,63.74
2023-02-15T14:57:08.103Z,64.03
2023-02-15T14:59:37.847Z,64.73
2023-02-15T15:02:10.342Z,64.40
2023-02-15T15:04:41.383Z,65.29
2023-02-15T15:07:18.383Z,65.59
2023-02-15T15:09:47.390Z,65.58
2023-02-15T15:12:43.395Z,65.00
2023-02-15T15:15:33.616Z,66.13
2023-02-15T15:18:10.968Z,65.97
2023-02-15T15:20:46.623Z,66.19
2023-02-15T15:23:16.203Z,66.37
2023-02-15T15:25:46.784Z,66.71
2023-02-15T15:28:48.876Z,66.66
2023-02-15T15:31:17.986Z,66.97
2023-02-15T15:34:17.176Z,66.83
2023-02-15T15:37:17.604Z,66.90
2023-02-15T15:40:05.979Z,67.55
2023-02-15T15:42:49.662Z,66.91
2023-02-15T15:45:37.479Z,66.94
2023-02-15T15:48:25.749Z,67.55
2023-02-15T15:50:55.213Z,67.59
2023-02-15T15:53:24.380Z,67.66
2023-02-15T15:55:56.497Z,67.46
2023-02-15T15:58:24.848Z,68.02
2023-02-15T16:00:53.951Z,67.77
2023-02-15T16:03:27.626Z,68.34
2023-02-15T16:06:01.108Z,68.41
2023-02-15T16:08:36.987Z,68.12
2023-02-15T16:11:15.319Z,68.34
2023-02-15T16:13:43.283Z,68.93
2023-02-15T16:16:13.703Z,68.83
2023-02-15T16:18:43.224Z,69.59
2023-02-15T16:21:19.513Z,69.33
2023-02-15T16:23:53.881Z,69.87
2023-02-15T16:26:50.878Z,70.22
2023-02-15T16:29:19.511Z,70.62
2023-02-15T16:32:21.270Z,70.81
2023-02-15T16:34:59.696Z,71.17
2023-02-15T16:37:28.779Z,71.77
2023-02-15T16:39:56.491Z,72.09
2023-02-15T16:42:23.707Z,72.35
2023-02-15T16:45:07.537Z,72.77
2023-02-15T16:47:42.074Z,73.20
2023-02-15T16:50:19.009Z,73.60
2023-02-15T16:52:45.902Z,74.18
2023-02-15T16:55:23.295Z,74.42
2023-02-15T16:57:50.740Z,74.50
2023-02-15T17:00:24.177Z,74.74
2023-02-15T17:03:02.572Z,75.01
2023-02-15T17:05:53.813Z,75.25
2023-02-15T17:08:29.363Z,75.58
2023-02-15T17:11:16.112Z,75.92
2023-02-15T17:14:10.058Z,76.02
2023-02-15T17:16:53.910Z,76.11
2023-02-15T17:19:33.863Z,76.15
2023-02-15T17:22:04.581Z,76.52
2023-02-15T17:24:39.512Z,76.69
2023-02-15T17:27:15.163Z,76.27
2023-02-15T17:29:47.244Z,76.85
2023-02-15T17:32:23.962Z,77.02
2023-02-15T17:35:25.606Z,76.96
2023-02-15T17:38:05.868Z,77.83
2023-02-15T17:40:34.825Z,77.85
2023-02-15T17:43:01.594Z,77.88
2023-02-15T17:45:34.389Z,77.87
2023-02-15T17:48:04.787Z,78.24
2023-02-15T17:50:32.724Z,78.54
2023-02-15T17:53:02.070Z,78.43
2023-02-15T17:55:41.212Z,78.40
2023-02-15T17:58:10.760Z,78.82
2023-02-15T18:01:02.648Z,79.14
2023-02-15T18:04:09.037Z,78.70
2023-02-15T18:06:56.640Z,78.86
2023-02-15T18:09:42.338Z,79.98
2023-02-15T18:12:31.625Z,79.40
2023-02-15T18:14:58.923Z,79.77
2023-02-15T18:17:30.080Z,79.59
2023-02-15T18:19:56.796Z,79.95
2023-02-15T18:22:23.345Z,79.76
2023-02-15T18:24:49.990Z,80.55
2023-02-15T18:27:16.897Z,80.84
2023-02-15T18:29:43.608Z,80.20
2023-02-15T18:32:21.134Z,80.66
2023-02-15T18:34:49.201Z,81.19
2023-02-15T18:37:19.532Z,82.18
2023-02-15T18:39:53.974Z,81.90
2023-02-15T18:42:23.807Z,82.02
2023-02-15T18:44:55.021Z,82.21
2023-02-15T18:47:21.653Z,82.07
2023-02-15T18:49:48.173Z,81.94
2023-02-15T18:52:17.486Z,82.64
2023-02-15T18:54:45.621Z,82.65
2023-02-15T18:57:18.196Z,82.53
2023-02-15T18:59:44.719Z,83.18
2023-02-15T19:02:17.604Z,83.49
2023-02-15T19:04:45.362Z,83.65
2023-02-15T19:07:21.726Z,83.94
2023-02-15T19:09:51.395Z,84.19
2023-02-15T19:12:19.639Z,83.65
2023-02-15T19:14:46.466Z,83.82
2023-02-15T19:17:18.362Z,83.78
2023-02-15T19:19:45.763Z,83.58
2023-02-15T19:22:15.378Z,84.10
2023-02-15T19:24:44.059Z,84.21
2023-02-15T19:27:25.746Z,83.53
2023-02-15T19:29:53.907Z,84.02
2023-02-15T19:32:21.046Z,83.04
2023-02-15T19:34:47.590Z,83.71
2023-02-15T19:37:23.611Z,83.79
2023-02-15T19:39:50.113Z,83.67
2023-02-15T19:42:21.606Z,83.64
2023-02-15T19:44:48.085Z,83.43
2023-02-15T19:47:14.687Z,83.53
2023-02-15T19:49:41.610Z,83.48
2023-02-15T19:52:24.257Z,83.78
2023-02-15T19:54:52.895Z,83.33
2023-02-15T19:57:19.596Z,83.08
2023-02-15T19:59:46.476Z,83.36
2023-02-15T20:02:14.940Z,83.51
2023-02-15T20:04:41.813Z,83.68
2023-02-15T20:07:19.448Z,84.20
2023-02-15T20:09:45.885Z,83.78
2023-02-15T20:12:26.640Z,84.54
2023-02-15T20:14:53.692Z,85.04
2023-02-15T20:17:20.188Z,84.84
2023-02-15T20:19:46.739Z,84.74
2023-02-15T20:22:25.284Z,84.84
2023-02-15T20:24:55.371Z,84.87
2023-02-15T20:27:21.974Z,84.68
2023-02-15T20:29:50.390Z,85.43
2023-02-15T20:32:17.048Z,85.36
2023-02-15T20:34:43.643Z,85.21
2023-02-15T20:37:21.785Z,85.42
2023-02-15T20:39:48.682Z,85.23
2023-02-15T20:42:15.504Z,85.23
2023-02-15T20:44:42.137Z,85.71
2023-02-15T20:47:08.658Z,85.45
2023-02-15T20:49:37.578Z,85.70
2023-02-15T20:52:20.100Z,85.09
2023-02-15T20:54:46.679Z,85.29
2023-02-15T20:57:13.541Z,85.68
2023-02-15T20:59:40.809Z,85.29
2023-02-15T21:02:22.837Z,84.72
2023-02-15T21:04:50.219Z,85.00
2023-02-15T21:07:19.235Z,85.42
2023-02-15T21:09:46.418Z,85.07
2023-02-15T21:12:18.342Z,84.56
2023-02-15T21:14:45.481Z,84.88
2023-02-15T21:17:13.993Z,85.55
2023-02-15T21:19:41.467Z,84.82
2023-02-15T21:22:13.318Z,84.77
2023-02-15T21:24:47.701Z,84.65
2023-02-15T21:27:14.677Z,84.55
2023-02-15T21:29:41.134Z,84.68
2023-02-15T21:32:09.780Z,85.30
2023-02-15T21:34:36.364Z,85.19
2023-02-15T21:37:02.815Z,85.26
2023-02-15T21:39:32.260Z,85.26
2023-02-15T21:42:17.558Z,85.15
2023-02-15T21:45:02.521Z,84.82
2023-02-15T21:47:49.463Z,84.53
2023-02-15T21:50:43.230Z,84.30
2023-02-15T21:53:12.517Z,85.14
2023-02-15T21:55:39.261Z,84.77
2023-02-15T21:58:06.304Z,84.95
2023-02-15T22:00:33.842Z,84.76
2023-02-15T22:03:01.814Z,84.44
2023-02-15T22:05:30.859Z,84.76
2023-02-15T22:07:57.419Z,84.31
2023-02-15T22:10:29.067Z,84.53
2023-02-15T22:12:55.907Z,84.51
2023-02-15T22:15:25.444Z,84.49
2023-02-15T22:17:53.435Z,84.35
2023-02-15T22:20:23.721Z,84.11
2023-02-15T22:22:51.730Z,83.96
2023-02-15T22:25:24.405Z,84.10
2023-02-15T22:27:52.967Z,84.50
2023-02-15T22:30:29.784Z,84.27
2023-02-15T22:32:57.826Z,85.01
2023-02-15T22:35:26.198Z,84.88
2023-02-15T22:37:52.726Z,84.78
2023-02-15T22:40:20.061Z,84.93
2023-02-15T22:42:49.552Z,84.97
2023-02-15T22:45:24.481Z,84.78
2023-02-15T22:47:56.266Z,84.93
2023-02-15T22:50:25.468Z,84.44
2023-02-15T22:52:52.516Z,84.65
2023-02-15T22:55:23.238Z,84.61
2023-02-15T22:57:53.446Z,84.54
2023-02-15T23:00:24.174Z,84.66
2023-02-15T23:02:50.721Z,85.16
2023-02-15T23:05:18.671Z,84.55
2023-02-15T23:07:46.138Z,84.86
2023-02-15T23:10:21.128Z,85.10
2023-02-15T23:13:07.564Z,84.59
2023-02-15T23:15:35.817Z,84.32
2023-02-15T23:18:18.664Z,84.78
2023-02-15T23:20:48.924Z,85.02
2023-02-15T23:23:15.660Z,85.12
2023-02-15T23:25:42.898Z,85.14
2023-02-15T23:28:30.379Z,85.03
2023-02-15T23:30:58.943Z,84.76
2023-02-15T23:33:30.355Z,84.90
2023-02-15T23:35:57.281Z,84.99
2023-02-15T23:38:30.152Z,85.36
2023-02-15T23:41:29.248Z,85.46
2023-02-15T23:43:59.349Z,85.54
2023-02-15T23:46:46.331Z,86.05
2023-02-15T23:49:15.477Z,85.56
2023-02-15T23:51:46.353Z,85.75
2023-02-15T23:54:14.650Z,85.83
2023-02-15T23:56:42.396Z,85.78
2023-02-15T23:59:15.290Z,86.15
